Time;durP1;ratioP1;P1;durP2;ratioP2;P2;SDS_P1;SDS_P2;PMS_P1;PMS_P2;Temp;Humidity;BMP_temperature;BMP_pressure;BME280_temperature;BME280_humidity;BME280_pressure;Samples;Min_cycle;Max_cycle;Signal;HPM_P1;HPM_P2
2024/04/03 00:00:53;;;;;;;;;;;23.60;39.30;;;;;;5071386;28;19975;-57
2024/04/03 00:03:19;;;;;;;;;;;23.60;39.30;;;;;;5071886;28;19928;-57
2024/04/03 00:05:44;;;;;;;;;;;23.60;39.30;;;;;;5074468;28;20428;-56
2024/04/03 00:08:10;;;;;;;;;;;23.60;39.30;;;;;;5075198;28;19928;-56
2024/04/03 00:10:36;;;;;;;;;;;23.60;39.30;;;;;;5074885;28;19924;-56
2024/04/03 00:13:02;;;;;;;;;;;23.60;39.30;;;;;;5074734;28;19931;-56
2024/04/03 00:15:28;;;;;;;;;;;23.60;39.30;;;;;;5074622;28;19975;-57
2024/04/03 00:17:54;;;;;;;;;;;23.60;39.40;;;;;;5074720;28;19928;-57
2024/04/03 00:20:21;;;;;;;;;;;23.60;39.30;;;;;;5074699;28;19925;-56
2024/04/03 00:22:47;;;;;;;;;;;23.60;39.30;;;;;;5075290;28;19924;-57
2024/04/03 00:25:13;;;;;;;;;;;23.60;39.30;;;;;;5074652;28;20361;-56
2024/04/03 00:27:39;;;;;;;;;;;23.50;39.20;;;;;;5074371;28;19928;-56
2024/04/03 00:30:05;;;;;;;;;;;23.60;39.30;;;;;;5074844;28;19925;-56
2024/04/03 00:32:31;;;;;;;;;;;23.60;39.30;;;;;;5074942;28;19925;-57
2024/04/03 00:34:56;;;;;;;;;;;23.60;39.30;;;;;;5074773;28;20327;-58
2024/04/03 00:37:22;;;;;;;;;;;23.50;39.80;;;;;;5074756;28;19925;-57
2024/04/03 00:39:55;;;;;;;;;;;23.60;39.30;;;;;;5074474;28;20371;-62
2024/04/03 00:42:21;;;;;;;;;;;23.60;39.30;;;;;;5074643;28;19932;-57
2024/04/03 00:44:47;;;;;;;;;;;23.60;39.30;;;;;;5074258;28;19924;-58
2024/04/03 00:47:17;;;;;;;;;;;23.50;39.20;;;;;;5074545;28;20270;-64
2024/04/03 00:49:47;;;;;;;;;;;23.50;39.20;;;;;;5073975;28;19928;-58
2024/04/03 00:52:13;;;;;;;;;;;23.50;39.20;;;;;;5074602;28;20270;-63
2024/04/03 00:54:40;;;;;;;;;;;23.50;39.20;;;;;;5074312;28;19924;-65
2024/04/03 00:57:06;;;;;;;;;;;23.50;39.80;;;;;;5074464;28;19990;-57
2024/04/03 00:59:32;;;;;;;;;;;23.50;39.20;;;;;;5074200;28;20365;-57
2024/04/03 01:02:00;;;;;;;;;;;23.50;39.20;;;;;;5074042;28;19924;-58
2024/04/03 01:04:25;;;;;;;;;;;23.50;39.20;;;;;;5074433;28;19951;-57
2024/04/03 01:06:51;;;;;;;;;;;23.50;39.20;;;;;;5074109;28;20262;-60
2024/04/03 01:09:17;;;;;;;;;;;23.50;39.20;;;;;;5073862;28;19928;-57
2024/04/03 01:11:43;;;;;;;;;;;23.50;39.20;;;;;;5073692;28;20449;-57
2024/04/03 01:14:09;;;;;;;;;;;23.50;39.20;;;;;;5073633;28;19928;-56
2024/04/03 01:16:36;;;;;;;;;;;23.50;39.20;;;;;;5072552;28;19970;-57
2024/04/03 01:19:02;;;;;;;;;;;23.50;39.20;;;;;;5073818;28;19925;-57
2024/04/03 01:21:28;;;;;;;;;;;23.50;39.20;;;;;;5073525;28;19974;-58
2024/04/03 01:23:54;;;;;;;;;;;23.50;39.20;;;;;;5073410;28;19935;-57
2024/04/03 01:26:20;;;;;;;;;;;23.50;39.20;;;;;;5073225;28;19925;-57
2024/04/03 01:28:46;;;;;;;;;;;23.50;39.20;;;;;;5073589;28;19931;-57
2024/04/03 01:31:12;;;;;;;;;;;23.50;39.20;;;;;;5073126;28;19968;-57
2024/04/03 01:33:38;;;;;;;;;;;23.50;39.20;;;;;;5073223;28;19974;-57
2024/04/03 01:36:06;;;;;;;;;;;23.40;39.20;;;;;;5072949;28;19932;-58
2024/04/03 01:38:32;;;;;;;;;;;23.40;39.20;;;;;;5073327;28;19970;-57
2024/04/03 01:40:57;;;;;;;;;;;23.50;39.20;;;;;;5073477;28;19928;-57
2024/04/03 01:43:23;;;;;;;;;;;23.40;39.20;;;;;;5073225;28;19972;-58
2024/04/03 01:45:56;;;;;;;;;;;23.50;39.20;;;;;;5072729;28;19935;-57
2024/04/03 01:48:22;;;;;;;;;;;23.40;39.20;;;;;;5073130;28;19932;-57
2024/04/03 01:50:48;;;;;;;;;;;23.50;39.20;;;;;;5072854;28;19928;-57
2024/04/03 01:53:14;;;;;;;;;;;23.40;39.20;;;;;;5073348;28;19928;-57
2024/04/03 01:55:40;;;;;;;;;;;23.50;39.20;;;;;;5072515;28;19924;-57
2024/04/03 01:58:05;;;;;;;;;;;23.40;39.10;;;;;;5072686;28;19924;-57
2024/04/03 02:00:31;;;;;;;;;;;23.40;39.10;;;;;;5072840;28;19924;-57
2024/04/03 02:02:57;;;;;;;;;;;23.40;39.10;;;;;;5072967;28;19924;-57
2024/04/03 02:05:23;;;;;;;;;;;23.40;39.10;;;;;;5072555;28;19931;-57
2024/04/03 02:07:50;;;;;;;;;;;23.40;39.10;;;;;;5072447;28;19929;-58
2024/04/03 02:10:16;;;;;;;;;;;23.40;39.20;;;;;;5072629;28;20015;-57
2024/04/03 02:12:41;;;;;;;;;;;23.40;39.20;;;;;;5072699;28;20330;-57
2024/04/03 02:15:07;;;;;;;;;;;23.40;39.20;;;;;;5072782;28;20285;-56
2024/04/03 02:17:33;;;;;;;;;;;23.40;39.10;;;;;;5072641;28;20023;-57
2024/04/03 02:19:59;;;;;;;;;;;23.40;39.10;;;;;;5072542;28;21343;-58
2024/04/03 02:22:25;;;;;;;;;;;23.40;39.10;;;;;;5072522;28;20289;-57
2024/04/03 02:24:50;;;;;;;;;;;23.50;39.10;;;;;;5072322;28;19932;-57
2024/04/03 02:27:16;;;;;;;;;;;23.40;39.00;;;;;;5072531;28;19924;-57
2024/04/03 02:29:42;;;;;;;;;;;23.40;39.00;;;;;;5072233;28;19925;-57
2024/04/03 02:32:08;;;;;;;;;;;23.40;39.10;;;;;;5072347;28;20270;-57
2024/04/03 02:34:34;;;;;;;;;;;23.40;39.10;;;;;;5072429;28;19932;-57
2024/04/03 02:37:00;;;;;;;;;;;23.40;39.10;;;;;;5071813;28;19967;-57
2024/04/03 02:39:25;;;;;;;;;;;23.40;39.10;;;;;;5072188;28;19977;-57
2024/04/03 02:41:51;;;;;;;;;;;23.40;39.10;;;;;;5072483;28;19929;-58
2024/04/03 02:44:17;;;;;;;;;;;23.40;39.00;;;;;;5072572;28;19924;-57
2024/04/03 02:46:43;;;;;;;;;;;23.40;39.10;;;;;;5072266;28;20316;-57
2024/04/03 02:49:10;;;;;;;;;;;23.40;39.10;;;;;;5071997;28;19951;-58
2024/04/03 02:51:35;;;;;;;;;;;23.40;39.10;;;;;;5071938;28;19925;-57
2024/04/03 02:54:02;;;;;;;;;;;23.40;39.00;;;;;;5072266;28;19931;-58
2024/04/03 02:56:27;;;;;;;;;;;23.40;39.00;;;;;;5072141;28;20329;-58
2024/04/03 02:58:53;;;;;;;;;;;23.40;39.00;;;;;;5072250;28;20027;-57
2024/04/03 03:01:19;;;;;;;;;;;23.40;39.00;;;;;;5072228;28;19928;-57
2024/04/03 03:03:45;;;;;;;;;;;23.40;39.00;;;;;;5072189;28;20278;-57
2024/04/03 03:06:11;;;;;;;;;;;23.40;39.00;;;;;;5072070;28;20363;-57
2024/04/03 03:08:37;;;;;;;;;;;23.40;39.00;;;;;;5072179;28;19924;-57
2024/04/03 03:11:03;;;;;;;;;;;23.40;39.00;;;;;;5071815;28;19971;-57
2024/04/03 03:13:29;;;;;;;;;;;23.40;39.00;;;;;;5071676;28;20317;-57
2024/04/03 03:15:58;;;;;;;;;;;23.40;39.00;;;;;;5071994;28;19928;-57
2024/04/03 03:18:24;;;;;;;;;;;23.40;39.00;;;;;;5072142;28;19925;-57
2024/04/03 03:20:50;;;;;;;;;;;23.40;39.00;;;;;;5071937;28;19925;-57
2024/04/03 03:23:16;;;;;;;;;;;23.40;39.00;;;;;;5071886;28;19924;-57
2024/04/03 03:25:43;;;;;;;;;;;23.40;39.00;;;;;;5071778;28;19925;-57
2024/04/03 03:28:09;;;;;;;;;;;23.40;38.90;;;;;;5071868;28;19929;-58
2024/04/03 03:30:35;;;;;;;;;;;23.40;38.90;;;;;;5071929;28;19928;-57
2024/04/03 03:33:03;;;;;;;;;;;23.40;38.90;;;;;;5070942;28;20132;-57
2024/04/03 03:35:30;;;;;;;;;;;23.40;38.90;;;;;;5071312;28;19932;-57
2024/04/03 03:37:56;;;;;;;;;;;23.40;38.90;;;;;;5071684;28;20399;-58
2024/04/03 03:40:21;;;;;;;;;;;23.40;38.90;;;;;;5074776;28;20408;-58
2024/04/03 03:42:47;;;;;;;;;;;23.30;38.90;;;;;;5075816;28;20039;-57
2024/04/03 03:45:15;;;;;;;;;;;23.40;39.00;;;;;;5075692;28;20286;-57
2024/04/03 03:47:41;;;;;;;;;;;23.30;38.90;;;;;;5075313;28;20259;-57
2024/04/03 03:52:53;;;;;;;;;;;23.30;38.90;;;;;;5075336;28;20247;-57
2024/04/03 03:55:18;;;;;;;;;;;23.30;38.90;;;;;;5075430;28;19935;-57
2024/04/03 03:57:44;;;;;;;;;;;23.30;38.90;;;;;;5075304;28;19928;-58
2024/04/03 04:00:11;;;;;;;;;;;23.30;38.90;;;;;;5075446;28;19925;-57
2024/04/03 04:02:37;;;;;;;;;;;23.30;38.90;;;;;;5075284;28;19931;-57
2024/04/03 04:05:03;;;;;;;;;;;23.30;38.90;;;;;;5075083;28;19924;-57
2024/04/03 04:07:28;;;;;;;;;;;23.30;38.80;;;;;;5058468;28;20426;-57
2024/04/03 04:09:54;;;;;;;;;;;23.30;38.80;;;;;;5074700;28;19932;-56
2024/04/03 04:12:20;;;;;;;;;;;23.30;38.80;;;;;;5075143;28;19924;-57
2024/04/03 04:14:50;;;;;;;;;;;23.30;38.80;;;;;;5074377;28;19925;-56
2024/04/03 04:17:16;;;;;;;;;;;23.30;38.80;;;;;;5075080;28;19924;-57
2024/04/03 04:19:42;;;;;;;;;;;23.30;38.80;;;;;;5074585;28;19932;-57
2024/04/03 04:22:08;;;;;;;;;;;23.30;38.80;;;;;;5075178;28;20297;-57
2024/04/03 04:24:37;;;;;;;;;;;23.30;38.70;;;;;;5074611;28;19930;-57
2024/04/03 04:27:08;;;;;;;;;;;23.30;38.70;;;;;;5074911;28;19932;-57
2024/04/03 04:29:36;;;;;;;;;;;23.30;38.70;;;;;;5074335;28;19928;-57
2024/04/03 04:32:03;;;;;;;;;;;23.30;38.70;;;;;;5075039;28;19929;-57
2024/04/03 04:34:29;;;;;;;;;;;23.30;38.70;;;;;;5074538;28;20320;-57
2024/04/03 04:36:55;;;;;;;;;;;23.30;38.70;;;;;;5072832;28;19931;-58
2024/04/03 04:39:21;;;;;;;;;;;23.30;38.60;;;;;;5063283;28;20024;-57
2024/04/03 04:41:50;;;;;;;;;;;23.40;38.50;;;;;;5062750;28;20263;-57
2024/04/03 04:44:16;;;;;;;;;;;23.40;38.30;;;;;;5050289;28;19924;-57
2024/04/03 04:46:42;;;;;;;;;;;23.40;38.30;;;;;;5053944;28;19932;-57
2024/04/03 04:49:08;;;;;;;;;;;23.40;38.10;;;;;;5054149;28;19925;-57
2024/04/03 04:51:34;;;;;;;;;;;23.40;38.10;;;;;;5052650;28;19924;-58
2024/04/03 04:54:00;;;;;;;;;;;23.40;38.00;;;;;;5053885;28;19925;-57
2024/04/03 04:56:26;;;;;;;;;;;23.40;38.00;;;;;;5053798;28;19924;-57
2024/04/03 04:58:52;;;;;;;;;;;23.50;38.00;;;;;;5054063;28;19924;-57
2024/04/03 05:01:18;;;;;;;;;;;23.40;38.00;;;;;;5071004;28;20020;-57
2024/04/03 05:03:44;;;;;;;;;;;23.40;37.90;;;;;;5058452;28;19936;-57
2024/04/03 05:06:20;;;;;;;;;;;23.40;37.90;;;;;;5066516;28;19925;-57
2024/04/03 05:08:46;;;;;;;;;;;23.50;37.90;;;;;;5053455;28;20298;-57
2024/04/03 05:11:12;;;;;;;;;;;23.50;37.80;;;;;;5058421;28;19931;-57
2024/04/03 05:13:38;;;;;;;;;;;23.50;37.70;;;;;;5063273;28;20394;-57
2024/04/03 05:16:07;;;;;;;;;;;23.60;37.70;;;;;;5061036;28;19928;-58
2024/04/03 05:18:33;;;;;;;;;;;23.60;37.60;;;;;;5072606;28;19994;-57
2024/04/03 05:20:59;;;;;;;;;;;23.60;37.60;;;;;;5063059;28;19932;-58
2024/04/03 05:23:25;;;;;;;;;;;23.60;37.60;;;;;;5061777;28;19929;-58
2024/04/03 05:26:01;;;;;;;;;;;23.60;37.80;;;;;;5064492;28;19932;-59
2024/04/03 05:28:30;;;;;;;;;;;23.70;37.90;;;;;;5065015;28;20255;-58
2024/04/03 05:31:01;;;;;;;;;;;23.70;37.90;;;;;;5062616;28;19925;-58
2024/04/03 05:33:27;;;;;;;;;;;23.70;37.80;;;;;;5061103;28;19924;-59
2024/04/03 05:35:55;;;;;;;;;;;23.70;37.70;;;;;;5058942;28;19982;-59
2024/04/03 05:38:21;;;;;;;;;;;23.80;37.70;;;;;;5058656;28;19932;-58
2024/04/03 05:40:48;;;;;;;;;;;23.80;37.60;;;;;;5041240;28;19940;-58
2024/04/03 05:43:14;;;;;;;;;;;23.90;37.60;;;;;;5057578;28;20423;-59
2024/04/03 05:45:40;;;;;;;;;;;23.90;37.60;;;;;;5061354;28;19933;-60
2024/04/03 05:48:06;;;;;;;;;;;23.90;37.50;;;;;;5060121;28;19928;-61
2024/04/03 05:50:32;;;;;;;;;;;23.90;37.40;;;;;;5060226;28;19944;-60
2024/04/03 05:52:58;;;;;;;;;;;24.00;37.50;;;;;;5055726;28;19932;-60
2024/04/03 05:55:24;;;;;;;;;;;24.00;37.30;;;;;;5057099;28;19941;-59
2024/04/03 05:57:50;;;;;;;;;;;24.00;37.20;;;;;;5059464;28;19924;-60
2024/04/03 06:00:16;;;;;;;;;;;24.10;37.20;;;;;;5059380;28;20579;-60
2024/04/03 06:02:42;;;;;;;;;;;24.10;37.10;;;;;;5064710;28;19932;-60
2024/04/03 06:05:08;;;;;;;;;;;24.10;37.60;;;;;;5060534;28;19928;-59
2024/04/03 06:07:34;;;;;;;;;;;24.10;37.00;;;;;;5059499;28;19925;-60
2024/04/03 06:10:01;;;;;;;;;;;24.10;36.90;;;;;;5056548;28;19933;-60
2024/04/03 06:12:27;;;;;;;;;;;24.20;37.00;;;;;;5062008;28;19935;-59
2024/04/03 06:14:52;;;;;;;;;;;24.20;37.00;;;;;;5058870;28;19932;-59
2024/04/03 06:17:18;;;;;;;;;;;24.20;37.00;;;;;;5057201;28;19968;-59
2024/04/03 06:19:45;;;;;;;;;;;24.20;37.00;;;;;;5055864;28;19943;-59
2024/04/03 06:22:11;;;;;;;;;;;24.30;37.10;;;;;;5064893;28;19939;-60
2024/04/03 06:24:37;;;;;;;;;;;24.30;37.00;;;;;;5060155;28;19974;-60
2024/04/03 06:27:03;;;;;;;;;;;24.30;36.90;;;;;;5056371;28;20217;-59
2024/04/03 06:29:29;;;;;;;;;;;24.40;36.90;;;;;;5059302;28;19928;-60
2024/04/03 06:31:55;;;;;;;;;;;24.50;36.90;;;;;;5057992;28;20011;-59
2024/04/03 06:34:21;;;;;;;;;;;24.50;36.90;;;;;;5039189;28;19925;-59
2024/04/03 06:36:47;;;;;;;;;;;24.50;36.80;;;;;;5058531;28;20010;-59
2024/04/03 06:39:12;;;;;;;;;;;24.60;37.00;;;;;;5062428;28;19925;-58
2024/04/03 06:41:38;;;;;;;;;;;24.60;36.90;;;;;;5056964;28;19972;-59
2024/04/03 06:44:05;;;;;;;;;;;24.60;36.90;;;;;;5044423;28;19924;-60
2024/04/03 06:46:31;;;;;;;;;;;24.70;36.80;;;;;;5057160;28;20398;-58
2024/04/03 06:48:57;;;;;;;;;;;24.70;36.70;;;;;;5058498;28;19935;-58
2024/04/03 06:51:22;;;;;;;;;;;24.70;36.60;;;;;;5058386;28;19974;-58
2024/04/03 06:53:49;;;;;;;;;;;24.70;36.50;;;;;;5059197;28;19933;-59
2024/04/03 06:56:15;;;;;;;;;;;24.70;36.40;;;;;;5055939;28;19932;-59
2024/04/03 06:58:41;;;;;;;;;;;24.80;36.40;;;;;;5057733;28;19928;-59
2024/04/03 07:01:08;;;;;;;;;;;24.80;36.30;;;;;;5061294;28;19924;-58
2024/04/03 07:03:34;;;;;;;;;;;24.80;36.30;;;;;;5059865;28;19932;-56
2024/04/03 07:06:00;;;;;;;;;;;24.80;36.20;;;;;;5058478;28;19940;-58
2024/04/03 07:08:26;;;;;;;;;;;24.80;36.20;;;;;;5056261;28;19925;-59
2024/04/03 07:10:52;;;;;;;;;;;24.90;36.30;;;;;;5054174;28;19924;-58
2024/04/03 07:13:18;;;;;;;;;;;24.90;36.30;;;;;;5055373;28;19931;-59
2024/04/03 07:15:46;;;;;;;;;;;24.90;36.30;;;;;;5063280;28;19929;-59
2024/04/03 07:18:12;;;;;;;;;;;24.90;36.30;;;;;;5070650;28;19939;-59
2024/04/03 07:20:38;;;;;;;;;;;25.00;36.30;;;;;;5065355;28;20016;-59
2024/04/03 07:23:04;;;;;;;;;;;25.00;36.20;;;;;;5064811;28;19924;-58
2024/04/03 07:25:30;;;;;;;;;;;25.00;36.10;;;;;;5042552;28;19939;-58
2024/04/03 07:27:57;;;;;;;;;;;25.00;36.10;;;;;;5057897;28;19935;-59
2024/04/03 07:30:23;;;;;;;;;;;25.00;36.00;;;;;;5062738;28;20283;-60
2024/04/03 07:32:49;;;;;;;;;;;25.10;36.00;;;;;;5063432;28;19968;-61
2024/04/03 07:35:15;;;;;;;;;;;25.10;36.10;;;;;;5065107;28;19928;-59
2024/04/03 07:37:42;;;;;;;;;;;25.10;36.20;;;;;;5066427;28;19940;-57
2024/04/03 07:40:11;;;;;;;;;;;25.10;36.30;;;;;;5063525;28;20309;-54
2024/04/03 07:42:41;;;;;;;;;;;25.10;36.30;;;;;;5066189;28;19933;-59
2024/04/03 07:45:08;;;;;;;;;;;25.20;36.30;;;;;;5066375;28;19932;-55
2024/04/03 07:47:34;;;;;;;;;;;25.20;36.10;;;;;;5064741;28;19924;-58
2024/04/03 07:50:00;;;;;;;;;;;25.20;36.10;;;;;;5064615;28;19935;-55
2024/04/03 07:52:26;;;;;;;;;;;25.20;36.10;;;;;;5065652;28;20010;-58
2024/04/03 07:54:52;;;;;;;;;;;25.30;36.10;;;;;;5061033;28;19925;-58
2024/04/03 07:57:18;;;;;;;;;;;25.30;36.00;;;;;;5061063;28;19931;-57
2024/04/03 07:59:45;;;;;;;;;;;25.30;35.90;;;;;;5061420;28;19928;-56
2024/04/03 08:02:11;;;;;;;;;;;25.40;35.90;;;;;;5050521;28;19970;-57
2024/04/03 08:04:37;;;;;;;;;;;25.40;35.80;;;;;;5060802;28;19932;-58
2024/04/03 08:07:03;;;;;;;;;;;25.40;35.80;;;;;;5061156;28;19940;-57
2024/04/03 08:09:32;;;;;;;;;;;25.50;35.80;;;;;;5060714;28;19928;-59
2024/04/03 08:11:58;;;;;;;;;;;25.50;35.70;;;;;;5059345;28;19928;-58
2024/04/03 08:14:24;;;;;;;;;;;25.50;36.00;;;;;;5041730;28;20420;-56
2024/04/03 08:16:49;;;;;;;;;;;25.50;35.70;;;;;;5062243;28;19975;-58
2024/04/03 08:19:15;;;;;;;;;;;25.60;35.80;;;;;;5057988;28;19936;-60
2024/04/03 08:21:44;;;;;;;;;;;25.60;35.80;;;;;;5057412;28;20378;-56
2024/04/03 08:24:10;;;;;;;;;;;25.60;35.80;;;;;;5041726;28;19940;-54
2024/04/03 08:26:36;;;;;;;;;;;25.60;35.70;;;;;;5058180;28;19925;-50
2024/04/03 08:29:02;;;;;;;;;;;25.60;35.60;;;;;;5061551;28;19940;-53
2024/04/03 08:31:28;;;;;;;;;;;25.60;35.50;;;;;;5060513;28;19976;-58
2024/04/03 08:33:54;;;;;;;;;;;25.70;35.20;;;;;;5061934;28;19981;-58
2024/04/03 08:36:20;;;;;;;;;;;25.70;35.50;;;;;;5058905;28;19925;-57
2024/04/03 08:38:46;;;;;;;;;;;25.70;35.20;;;;;;5064725;28;19932;-57
2024/04/03 08:41:12;;;;;;;;;;;25.60;35.40;;;;;;5057269;28;19932;-58
2024/04/03 08:43:38;;;;;;;;;;;25.70;35.50;;;;;;5063199;28;19947;-58
2024/04/03 08:46:04;;;;;;;;;;;25.60;35.50;;;;;;5057727;28;19979;-60
2024/04/03 08:48:30;;;;;;;;;;;25.70;35.50;;;;;;5062060;28;19974;-59
2024/04/03 08:50:56;;;;;;;;;;;25.70;35.40;;;;;;5061261;28;19928;-59
2024/04/03 08:53:22;;;;;;;;;;;25.70;35.00;;;;;;5059718;28;19924;-59
2024/04/03 08:55:50;;;;;;;;;;;25.70;35.10;;;;;;5063983;28;19928;-58
2024/04/03 08:58:16;;;;;;;;;;;25.70;35.20;;;;;;5061349;28;19935;-58
2024/04/03 09:00:42;;;;;;;;;;;25.70;35.50;;;;;;5058027;28;19944;-59
2024/04/03 09:03:12;;;;;;;;;;;25.70;34.70;;;;;;5059294;28;20290;-59
2024/04/03 09:05:38;;;;;;;;;;;25.70;35.10;;;;;;5059497;28;19943;-58
2024/04/03 09:08:05;;;;;;;;;;;25.70;35.20;;;;;;5059995;28;20275;-54
2024/04/03 09:10:31;;;;;;;;;;;25.70;35.30;;;;;;5059607;28;20340;-56
2024/04/03 09:13:07;;;;;;;;;;;25.80;35.40;;;;;;5043506;28;19925;-56
2024/04/03 09:15:33;;;;;;;;;;;25.80;35.30;;;;;;5065867;28;19925;-55
2024/04/03 09:18:00;;;;;;;;;;;25.90;35.00;;;;;;5062371;28;20293;-59
2024/04/03 09:20:26;;;;;;;;;;;25.90;35.70;;;;;;5059566;28;19929;-56
2024/04/03 09:22:52;;;;;;;;;;;26.00;35.10;;;;;;5063881;28;19931;-57
2024/04/03 09:25:18;;;;;;;;;;;26.10;35.00;;;;;;5055436;28;19925;-58
2024/04/03 09:27:45;;;;;;;;;;;26.10;34.80;;;;;;5058641;28;19928;-54
2024/04/03 09:30:14;;;;;;;;;;;26.10;34.50;;;;;;5059655;28;20382;-55
2024/04/03 09:32:40;;;;;;;;;;;26.20;34.60;;;;;;5059289;28;20074;-51
2024/04/03 09:35:07;;;;;;;;;;;26.20;34.60;;;;;;5059219;28;20385;-55
2024/04/03 09:37:35;;;;;;;;;;;26.30;34.70;;;;;;5057108;28;20365;-56
2024/04/03 09:40:05;;;;;;;;;;;26.30;34.70;;;;;;5061055;28;19924;-57
2024/04/03 09:42:32;;;;;;;;;;;26.30;34.70;;;;;;5043728;28;19944;-58
2024/04/03 09:44:58;;;;;;;;;;;26.40;34.70;;;;;;5053622;28;19925;-55
2024/04/03 09:47:24;;;;;;;;;;;26.40;34.70;;;;;;5059659;28;19933;-54
2024/04/03 09:49:51;;;;;;;;;;;26.40;34.60;;;;;;5061024;28;19945;-53
2024/04/03 09:52:17;;;;;;;;;;;26.50;34.60;;;;;;5078831;28;19932;-56
2024/04/03 09:54:44;;;;;;;;;;;26.50;34.50;;;;;;5057629;28;19924;-55
2024/04/03 09:57:10;;;;;;;;;;;26.50;34.50;;;;;;5062725;28;19928;-56
2024/04/03 09:59:36;;;;;;;;;;;26.50;34.50;;;;;;5062213;28;19932;-56
2024/04/03 10:02:02;;;;;;;;;;;26.60;34.40;;;;;;5062643;28;19924;-57
2024/04/03 10:04:36;;;;;;;;;;;26.60;34.30;;;;;;5060236;28;19937;-57
2024/04/03 10:07:02;;;;;;;;;;;26.60;35.00;;;;;;5060318;28;20121;-53
2024/04/03 10:09:30;;;;;;;;;;;26.60;34.30;;;;;;5056460;28;20608;-56
2024/04/03 10:12:00;;;;;;;;;;;26.60;34.30;;;;;;5059139;28;19929;-58
2024/04/03 10:14:28;;;;;;;;;;;26.60;34.30;;;;;;5056560;28;20024;-59
2024/04/03 10:16:54;;;;;;;;;;;26.60;34.20;;;;;;5065289;28;19932;-58
2024/04/03 10:19:24;;;;;;;;;;;26.70;34.10;;;;;;5062269;28;19932;-57
2024/04/03 10:21:50;;;;;;;;;;;26.60;34.30;;;;;;5086431;28;19933;-58
2024/04/03 10:24:19;;;;;;;;;;;26.70;34.50;;;;;;5071649;28;20015;-58
2024/04/03 10:26:46;;;;;;;;;;;26.70;34.50;;;;;;5065399;28;19967;-57
2024/04/03 10:29:12;;;;;;;;;;;26.70;34.50;;;;;;5053472;28;19925;-52
2024/04/03 10:31:38;;;;;;;;;;;26.70;34.30;;;;;;5062683;28;19924;-57
2024/04/03 10:34:04;;;;;;;;;;;26.70;34.40;;;;;;5062928;28;20016;-58
2024/04/03 10:36:30;;;;;;;;;;;26.70;34.50;;;;;;5060437;28;20026;-58
2024/04/03 10:38:56;;;;;;;;;;;26.70;34.50;;;;;;5065123;28;20118;-58
2024/04/03 10:41:22;;;;;;;;;;;26.70;34.20;;;;;;5063209;28;20400;-57
2024/04/03 10:43:49;;;;;;;;;;;26.80;34.10;;;;;;5046018;28;19929;-54
2024/04/03 10:46:25;;;;;;;;;;;26.80;34.10;;;;;;5060839;28;19925;-58
2024/04/03 10:48:55;;;;;;;;;;;26.80;34.50;;;;;;5058562;28;19990;-58
2024/04/03 10:51:21;;;;;;;;;;;26.80;33.80;;;;;;5060684;28;19959;-58
2024/04/03 10:53:48;;;;;;;;;;;26.80;33.80;;;;;;5057689;28;19932;-58
2024/04/03 10:56:16;;;;;;;;;;;26.90;34.10;;;;;;5061781;28;20313;-58
2024/04/03 10:58:44;;;;;;;;;;;26.90;33.80;;;;;;5058214;28;19924;-57
2024/04/03 11:01:11;;;;;;;;;;;26.90;33.70;;;;;;5064111;28;19928;-57
2024/04/03 11:03:38;;;;;;;;;;;26.90;33.80;;;;;;5062531;28;19928;-58
2024/04/03 11:06:04;;;;;;;;;;;26.90;33.50;;;;;;5040795;28;19928;-56
2024/04/03 11:08:29;;;;;;;;;;;26.90;33.60;;;;;;5065078;28;19932;-58
2024/04/03 11:11:03;;;;;;;;;;;26.90;33.60;;;;;;5060148;28;20043;-57
2024/04/03 11:13:29;;;;;;;;;;;27.00;33.70;;;;;;5038720;28;19955;-58
2024/04/03 11:15:55;;;;;;;;;;;26.90;33.50;;;;;;5060582;28;20441;-58
2024/04/03 11:18:21;;;;;;;;;;;27.00;33.60;;;;;;5064812;28;19944;-57
2024/04/03 11:20:50;;;;;;;;;;;27.00;33.60;;;;;;5054888;28;19928;-58
2024/04/03 11:23:16;;;;;;;;;;;27.00;33.50;;;;;;5076589;28;21153;-58
2024/04/03 11:25:42;;;;;;;;;;;27.10;33.50;;;;;;5062353;28;20393;-58
2024/04/03 11:28:08;;;;;;;;;;;27.10;33.30;;;;;;5060867;28;19980;-58
2024/04/03 11:30:37;;;;;;;;;;;27.20;33.30;;;;;;5046236;28;19925;-58
2024/04/03 11:33:03;;;;;;;;;;;27.20;33.30;;;;;;5063769;28;20382;-58
2024/04/03 11:35:29;;;;;;;;;;;27.20;33.30;;;;;;5061750;28;19932;-58
2024/04/03 11:37:56;;;;;;;;;;;27.30;33.10;;;;;;5062208;28;20018;-58
2024/04/03 11:40:21;;;;;;;;;;;27.30;32.90;;;;;;5054340;28;19932;-58
2024/04/03 11:42:47;;;;;;;;;;;27.30;32.90;;;;;;5059721;28;19976;-58
2024/04/03 11:45:13;;;;;;;;;;;27.30;32.60;;;;;;5060846;28;20672;-58
2024/04/03 11:47:39;;;;;;;;;;;27.30;32.50;;;;;;5056598;28;19932;-58
2024/04/03 11:50:06;;;;;;;;;;;27.30;32.50;;;;;;5057712;28;20015;-59
2024/04/03 11:52:32;;;;;;;;;;;27.30;32.30;;;;;;5057964;28;20267;-60
2024/04/03 11:54:58;;;;;;;;;;;27.30;32.60;;;;;;5056734;28;19933;-62
2024/04/03 11:57:24;;;;;;;;;;;27.30;32.50;;;;;;5053388;28;20039;-60
2024/04/03 11:59:51;;;;;;;;;;;27.30;32.80;;;;;;5061819;28;20286;-60
2024/04/03 12:02:17;;;;;;;;;;;27.30;32.90;;;;;;5063256;28;19940;-60
2024/04/03 12:04:43;;;;;;;;;;;27.30;32.90;;;;;;5061357;28;19932;-62
2024/04/03 12:07:10;;;;;;;;;;;27.30;32.50;;;;;;5057506;28;20471;-59
2024/04/03 12:09:37;;;;;;;;;;;27.30;32.40;;;;;;5065465;28;19940;-61
2024/04/03 12:12:05;;;;;;;;;;;27.30;32.50;;;;;;5057430;28;19986;-61
2024/04/03 12:14:32;;;;;;;;;;;27.40;32.60;;;;;;5057272;28;20030;-59
2024/04/03 12:17:02;;;;;;;;;;;27.30;32.60;;;;;;5058415;28;19933;-63
2024/04/03 12:19:44;;;;;;;;;;;27.30;32.70;;;;;;5068389;28;19924;-59
2024/04/03 12:22:14;;;;;;;;;;;27.30;32.50;;;;;;5067398;28;19933;-59
2024/04/03 12:24:40;;;;;;;;;;;27.30;32.10;;;;;;5061685;28;19978;-59
2024/04/03 12:27:06;;;;;;;;;;;27.30;32.40;;;;;;5063929;28;19937;-56
2024/04/03 12:29:32;;;;;;;;;;;27.30;33.00;;;;;;5063742;28;19924;-58
2024/04/03 12:31:59;;;;;;;;;;;27.30;32.30;;;;;;5061283;28;19964;-59
2024/04/03 12:34:25;;;;;;;;;;;27.30;32.30;;;;;;5062251;28;19950;-58
2024/04/03 12:36:51;;;;;;;;;;;27.30;32.10;;;;;;5061855;28;19932;-59
2024/04/03 12:39:17;;;;;;;;;;;27.30;32.10;;;;;;5068317;28;19971;-59
2024/04/03 12:41:43;;;;;;;;;;;27.30;31.90;;;;;;5070246;28;19931;-59
2024/04/03 12:44:08;;;;;;;;;;;27.30;32.10;;;;;;5065843;28;19924;-60
2024/04/03 12:46:34;;;;;;;;;;;27.30;31.90;;;;;;5071882;28;20326;-60
2024/04/03 12:49:00;;;;;;;;;;;27.30;31.80;;;;;;5063696;28;19978;-58
2024/04/03 12:51:26;;;;;;;;;;;27.30;32.00;;;;;;5066668;28;19991;-58
2024/04/03 12:53:52;;;;;;;;;;;27.30;32.00;;;;;;5069288;28;20323;-58
2024/04/03 12:56:18;;;;;;;;;;;27.30;30.80;;;;;;5068642;28;19924;-58
2024/04/03 12:58:44;;;;;;;;;;;27.20;31.70;;;;;;5061279;28;19925;-58
2024/04/03 13:01:09;;;;;;;;;;;27.20;31.20;;;;;;5062872;28;20400;-58
2024/04/03 13:03:35;;;;;;;;;;;27.20;31.30;;;;;;5061602;28;19925;-58
2024/04/03 13:06:01;;;;;;;;;;;27.20;31.70;;;;;;5061573;28;19925;-58
2024/04/03 13:08:27;;;;;;;;;;;27.20;31.10;;;;;;5060703;28;19924;-58
2024/04/03 13:10:53;;;;;;;;;;;27.10;31.50;;;;;;5061704;28;20007;-59
2024/04/03 13:13:19;;;;;;;;;;;27.20;31.60;;;;;;5058522;28;19925;-58
2024/04/03 13:15:45;;;;;;;;;;;27.20;31.10;;;;;;5057375;28;19935;-58
2024/04/03 13:18:13;;;;;;;;;;;27.10;31.30;;;;;;5058971;28;19936;-58
2024/04/03 13:20:38;;;;;;;;;;;27.10;31.60;;;;;;5060551;28;20306;-58
2024/04/03 13:23:04;;;;;;;;;;;27.10;31.50;;;;;;5060832;28;19931;-57
2024/04/03 13:25:30;;;;;;;;;;;27.10;31.50;;;;;;5060637;28;20019;-58
2024/04/03 13:27:57;;;;;;;;;;;27.10;31.80;;;;;;5043981;28;20113;-57
2024/04/03 13:30:23;;;;;;;;;;;27.10;31.80;;;;;;5061300;28;19932;-57
2024/04/03 13:32:49;;;;;;;;;;;27.10;31.50;;;;;;5063584;28;19932;-56
2024/04/03 13:35:15;;;;;;;;;;;27.10;31.70;;;;;;5065834;28;19924;-58
2024/04/03 13:37:41;;;;;;;;;;;27.10;31.70;;;;;;5056730;28;20408;-60
2024/04/03 13:40:11;;;;;;;;;;;27.10;31.80;;;;;;5061583;28;20003;-60
2024/04/03 13:42:37;;;;;;;;;;;27.10;31.90;;;;;;5062357;28;19929;-61
2024/04/03 13:45:04;;;;;;;;;;;27.20;32.60;;;;;;5059948;28;19948;-58
2024/04/03 13:47:30;;;;;;;;;;;27.20;31.90;;;;;;5060719;28;20314;-58
2024/04/03 13:49:56;;;;;;;;;;;27.30;31.90;;;;;;5060478;28;19928;-59
2024/04/03 13:52:22;;;;;;;;;;;27.30;31.90;;;;;;5063894;28;19993;-60
2024/04/03 13:54:48;;;;;;;;;;;27.30;31.80;;;;;;5049299;28;20389;-59
2024/04/03 13:57:14;;;;;;;;;;;27.30;31.80;;;;;;5061608;28;19925;-60
2024/04/03 13:59:41;;;;;;;;;;;27.30;31.80;;;;;;5059390;28;21060;-56
2024/04/03 14:02:07;;;;;;;;;;;27.30;31.90;;;;;;5061063;28;20121;-59
2024/04/03 14:04:32;;;;;;;;;;;27.30;32.00;;;;;;5044375;28;19924;-59
2024/04/03 14:06:59;;;;;;;;;;;27.20;32.00;;;;;;5062814;28;20373;-59
2024/04/03 14:09:25;;;;;;;;;;;27.20;32.10;;;;;;5058261;28;19970;-58
2024/04/03 14:11:51;;;;;;;;;;;27.20;32.10;;;;;;5067519;28;19932;-59
2024/04/03 14:14:16;;;;;;;;;;;27.10;32.10;;;;;;5062297;28;19939;-59